Thursday, January 18, 2018, 10:57 PM EST
Back to Local

KAQW, N Adams Harriman-and-west

Location: North Adams, MA, United States Lat: 42.7
Local Time: 10:57 PM EST ( 3:57 GMT) Lon: -73.167
Time Zone: US/Eastern Elev: 652 ft

Show me the last for .
Show Decoded

2018-01-18 21:52 METAR KAQW 190252Z AUTO 28006KT 10SM FEW024 OVC033 M07/M11 A2998 RMK AO2 SLP166
                 T10671106 53014 =
2018-01-18 20:52 METAR KAQW 190152Z AUTO 27008KT 10SM OVC034 M07/M11 A2997 RMK AO2 SLP162
                 T10671106 =
2018-01-18 19:52 METAR KAQW 190052Z AUTO 26008KT 10SM OVC034 M07/M11 A2995 RMK AO2 SLP155
                 T10671106 =
2018-01-18 18:52 METAR KAQW 182352Z AUTO 27009KT 10SM OVC035 M06/M11 A2994 RMK AO2 SLP154 60000
                 I6001 T10611106 11050 21061 53010 =
2018-01-18 18:29 METAR KAQW 182329Z AUTO 26010KT 10SM SCT027 OVC035 M06/M11 A2994 RMK AO2
                 T10611106 =
2018-01-18 17:52 METAR KAQW 182252Z AUTO 26010KT 10SM BKN026 OVC033 M06/M11 A2994 RMK AO2 SLP151
                 T10611106 =
2018-01-18 17:32 METAR KAQW 182232Z AUTO 26011KT 10SM BKN026 OVC033 M06/M11 A2993 RMK AO2
                 T10611106 =
2018-01-18 16:59 METAR KAQW 182159Z AUTO 26009KT 10SM SCT026 OVC032 M06/M11 A2991 RMK AO2
                 T10611106 =
2018-01-18 16:52 METAR KAQW 182152Z AUTO 27009KT 10SM BKN026 OVC033 M06/M11 A2991 RMK AO2 SLP141
                 T10611106 =
2018-01-18 15:52 METAR KAQW 182052Z AUTO 30005G16KT 10SM BKN029 OVC035 M06/M11 A2991 RMK AO2
                 SLP142 60000 I3001 T10561106 55008 =
2018-01-18 15:42 METAR KAQW 182042Z AUTO 28006KT 10SM BKN029 OVC035 M06/M11 A2991 RMK AO2
                 T10561106 =
2018-01-18 14:52 METAR KAQW 181952Z AUTO 27010KT 10SM OVC033 M05/M11 A2990 RMK AO2 UPE1855 SLP138
                 P0000 T10501111 =
2018-01-18 14:02 METAR KAQW 181902Z AUTO 28013G17KT 10SM OVC030 M05/M11 A2991 RMK AO2 UPE1855
                 P0000 T10501111 =
2018-01-18 13:52 METAR KAQW 181852Z AUTO 28009G20KT 10SM UP OVC029 M05/M11 A2991 RMK AO2 UPB46
                 SLP141 P0000 I1001 T10501111 =
2018-01-18 12:52 METAR KAQW 181752Z AUTO VRB05KT 10SM OVC029 M06/M11 A2994 RMK AO2 SLP151
                 T10611106 11061 21150 58024 =
2018-01-18 11:52 METAR KAQW 181652Z AUTO 28005KT 10SM OVC025 M07/M12 A2998 RMK AO2 SLP164
                 T10671117 =
2018-01-18 10:52 METAR KAQW 181552Z AUTO 29006KT 10SM OVC023 M08/M12 A3000 RMK AO2 SLP173
                 T10831122 =
2018-01-18 09:52 METAR KAQW 181452Z AUTO 28006KT 10SM BKN023 M09/M13 A3001 RMK AO2 SLP176
                 T10891128 55000 =
2018-01-18 09:40 METAR KAQW 181440Z AUTO 28006KT 10SM BKN022 M09/M13 A3001 RMK AO2 T10941133 =
2018-01-18 09:32 METAR KAQW 181432Z AUTO 00000KT 10SM SCT023 M10/M13 A3001 RMK AO2 T11001133 =
2018-01-18 08:52 METAR KAQW 181352Z AUTO 00000KT 9SM OVC023 M12/M15 A3000 RMK AO2 SLP174
                 T11221150 =
2018-01-18 08:15 METAR KAQW 181315Z AUTO 34004KT 8SM BKN022 M14/M16 A2999 RMK AO2 T11391161 =
2018-01-18 07:52 METAR KAQW 181252Z AUTO 33005KT 8SM CLR M15/M16 A3000 RMK AO2 SLP171 T11501161 =
2018-01-18 06:52 METAR KAQW 181152Z AUTO 32004KT 10SM CLR M14/M16 A3001 RMK AO2 SLP177 70005
                 T11441156 11094 21144 58011 =
2018-01-18 05:52 METAR KAQW 181052Z AUTO 32005KT 10SM CLR M14/M16 A3003 RMK AO2 SLP183 T11391156
                 =
2018-01-18 04:52 METAR KAQW 180952Z AUTO 34005KT 10SM CLR M13/M15 A3004 RMK AO2 SLP185 T11331150
                 =
2018-01-18 03:52 METAR KAQW 180852Z AUTO 30005KT 10SM CLR M13/M15 A3004 RMK AO2 SLP187 T11281150
                 56015 =
2018-01-18 02:52 METAR KAQW 180752Z AUTO 31004KT 9SM CLR M13/M15 A3006 RMK AO2 SLP193 T11331150 =
2018-01-18 01:52 METAR KAQW 180652Z AUTO 29006KT 10SM CLR M12/M14 A3006 RMK AO2 SLP190 T11171144
                 =
2018-01-18 00:52 METAR KAQW 180552Z AUTO 25004KT 10SM CLR M12/M14 A3009 RMK AO2 SLP201 60000
                 T11221144 11067 21128 58017 =
2018-01-17 23:52 METAR KAQW 180452Z AUTO 27005KT 10SM CLR M11/M13 A3011 RMK AO2 SLP207 T11111133
                 410111111 =

Support USWX by starting your Amazon purchase here.